Time;durP1;ratioP1;P1;durP2;ratioP2;P2;SDS_P1;SDS_P2;PMS_P1;PMS_P2;Temp;Humidity;BMP_temperature;BMP_pressure;BME280_temperature;BME280_humidity;BME280_pressure;Samples;Min_cycle;Max_cycle;Signal;HPM_P1;HPM_P2
2023/02/15 00:00:13;;;;;;;4.78;0.80;;;;;;;0.67;68.74;99805.53;5107757;28;20063;-52
2023/02/15 00:02:39;;;;;;;5.05;1.50;;;;;;;0.65;68.68;99806.38;5105335;28;20046;-48
2023/02/15 00:05:05;;;;;;;4.13;0.98;;;;;;;0.64;68.93;99808.06;5105848;28;20560;-49
2023/02/15 00:07:32;;;;;;;3.53;1.13;;;;;;;0.62;69.17;99804.66;5107556;28;20055;-50
2023/02/15 00:09:58;;;;;;;3.38;1.30;;;;;;;0.63;69.32;99806.34;5082885;28;20039;-49
2023/02/15 00:12:23;;;;;;;1.25;0.60;;;;;;;0.60;68.86;99811.44;5108226;28;20043;-49
2023/02/15 00:14:50;;;;;;;5.32;1.63;;;;;;;0.33;68.89;99770.31;5105612;28;20050;-51
2023/02/15 00:17:15;;;;;;;2.88;1.13;;;;;;;0.59;68.89;99807.16;5103238;28;20034;-46
2023/02/15 00:19:41;;;;;;;3.35;2.03;;;;;;;0.58;69.06;99805.44;5106364;28;20031;-46
2023/02/15 00:22:07;;;;;;;6.93;1.85;;;;;;;0.63;68.52;99823.44;5107434;28;20063;-50
2023/02/15 00:24:33;;;;;;;5.15;1.55;;;;;;;0.62;68.77;99804.66;5107016;28;20050;-50
2023/02/15 00:26:59;;;;;;;2.35;0.80;;;;;;;0.59;68.58;99804.63;5107091;28;20047;-45
2023/02/15 00:29:25;;;;;;;5.78;2.33;;;;;;;0.60;68.87;99806.34;5099958;28;20048;-49
2023/02/15 00:31:51;;;;;;;5.85;0.98;;;;;;;0.61;68.71;99805.50;5103754;28;20127;-50
2023/02/15 00:34:21;;;;;;;5.35;1.63;;;;;;;0.62;68.88;99825.13;5081118;28;20142;-46
2023/02/15 00:36:48;;;;;;;3.22;0.88;;;;;;;0.59;68.60;99814.00;5101236;28;20054;-47
2023/02/15 00:39:15;;;;;;;10.68;3.45;;;;;;;0.54;68.50;99808.84;5105534;28;20043;-53
2023/02/15 00:41:40;;;;;;;4.47;0.73;;;;;;;0.53;69.08;99814.78;5106222;28;20044;-50
2023/02/15 00:44:07;;;;;;;1.58;0.75;;;;;;;0.27;68.78;99780.47;5105240;28;20595;-49
2023/02/15 00:46:33;;;;;;;6.72;2.25;;;;;;;0.54;68.73;99821.63;5071688;28;20747;-49
2023/02/15 00:49:01;;;;;;;1.52;0.60;;;;;;;0.50;69.06;99813.91;5105836;28;20116;-48
2023/02/15 00:51:27;;;;;;;2.05;0.60;;;;;;;0.52;69.26;99827.59;5102201;28;20039;-45
2023/02/15 00:53:53;;;;;;;1.73;0.70;;;;;;;0.53;68.75;99824.16;5103281;28;20142;-46
2023/02/15 00:56:19;;;;;;;2.85;0.95;;;;;;;0.54;69.38;99825.88;5097373;28;20062;-47
2023/02/15 00:58:45;;;;;;;1.02;0.68;;;;;;;0.35;68.98;99802.72;5102910;28;20040;-47
2023/02/15 01:01:17;;;;;;;3.47;0.90;;;;;;;0.40;68.71;99798.50;5106307;28;20050;-50
2023/02/15 01:03:46;;;;;;;4.25;0.68;;;;;;;0.63;68.87;99829.38;5107634;28;20036;-48
2023/02/15 01:06:13;;;;;;;3.13;1.00;;;;;;;0.62;68.94;99830.25;5103973;28;20150;-48
2023/02/15 01:08:39;;;;;;;3.60;1.13;;;;;;;0.59;68.49;99824.22;5101976;28;20047;-48
2023/02/15 01:11:10;;;;;;;6.88;1.90;;;;;;;0.53;68.41;99829.28;5088199;28;20047;-50
2023/02/15 01:13:36;;;;;;;4.60;0.98;;;;;;;0.49;68.84;99827.53;5099570;28;20050;-51
2023/02/15 01:16:03;;;;;;;3.60;1.20;;;;;;;0.53;68.72;99836.94;5087275;28;20043;-48
2023/02/15 01:18:29;;;;;;;2.35;0.77;;;;;;;0.31;68.20;99797.59;5104747;28;20063;-50
2023/02/15 01:20:55;;;;;;;2.72;0.80;;;;;;;0.54;68.37;99836.13;5103689;28;20086;-50
2023/02/15 01:23:21;;;;;;;5.80;0.80;;;;;;;0.55;68.23;99837.84;5104372;28;20084;-48
2023/02/15 01:25:47;;;;;;;1.85;0.90;;;;;;;0.54;68.01;99838.69;5104354;28;20597;-48
2023/02/15 01:28:13;;;;;;;3.72;1.13;;;;;;;0.53;68.03;99839.50;5104372;28;20050;-49
2023/02/15 01:30:39;;;;;;;2.15;0.88;;;;;;;0.51;67.95;99831.00;5102675;28;20423;-47
2023/02/15 01:33:05;;;;;;;4.53;1.73;;;;;;;0.43;67.93;99828.34;5085532;28;20058;-46
2023/02/15 01:35:32;;;;;;;2.83;1.02;;;;;;;0.41;68.06;99835.19;5101901;28;20503;-49
2023/02/15 01:37:58;;;;;;;5.47;0.80;;;;;;;0.38;67.93;99845.34;5105253;28;20122;-49
2023/02/15 01:40:24;;;;;;;7.80;2.85;;;;;;;0.35;68.02;99851.31;5103098;28;20126;-48
2023/02/15 01:42:51;;;;;;;4.78;0.70;;;;;;;0.36;68.06;99847.91;5064561;28;20858;-48
2023/02/15 01:45:30;;;;;;;4.90;1.13;;;;;;;0.35;68.01;99848.75;5101347;28;20036;-53
2023/02/15 01:48:05;;;;;;;5.22;0.70;;;;;;;0.36;67.80;99850.47;5103921;28;20083;-48
2023/02/15 01:50:36;;;;;;;2.80;0.98;;;;;;;0.33;67.69;99849.56;5100440;28;20571;-49
2023/02/15 01:53:24;;;;;;;5.72;0.90;;;;;;;0.33;67.55;99847.00;5106268;28;20039;-51
2023/02/15 01:56:04;;;;;;;3.55;0.77;;;;;;;0.32;67.42;99852.97;5094131;28;20499;-49
2023/02/15 01:58:30;;;;;;;3.97;0.80;;;;;;;0.35;67.48;99859.00;5064454;28;20096;-47
2023/02/15 02:00:59;;;;;;;4.70;0.88;;;;;;;0.29;67.72;99848.69;5086242;28;20050;-45
2023/02/15 02:03:34;;;;;;;2.80;1.10;;;;;;;0.38;67.31;99855.59;5102003;28;20570;-47
2023/02/15 02:06:03;;;;;;;3.85;0.95;;;;;;;0.41;67.36;99859.06;5104281;28;20297;-48
2023/02/15 02:08:28;;;;;;;3.45;0.70;;;;;;;0.42;67.23;99847.94;5109332;28;20069;-47
2023/02/15 02:10:54;;;;;;;6.13;0.80;;;;;;;0.39;66.95;99847.06;5084323;28;20643;-46
2023/02/15 02:13:20;;;;;;;3.33;0.77;;;;;;;0.40;66.36;99843.69;5109741;28;20100;-49
2023/02/15 02:16:21;;;;;;;4.60;0.85;;;;;;;0.37;66.34;99858.97;5108166;28;21653;-49
2023/02/15 02:19:05;;;;;;;8.60;1.13;;;;;;;0.32;66.21;99860.63;5108315;28;20553;-47
2023/02/15 02:21:40;;;;;;;3.80;1.08;;;;;;;0.32;66.47;99856.38;5105103;28;20130;-49
2023/02/15 02:24:23;;;;;;;5.40;0.60;;;;;;;0.33;65.96;99864.91;5107952;28;20473;-52
2023/02/15 02:27:09;;;;;;;2.65;0.43;;;;;;;0.34;66.18;99869.19;5110045;28;20040;-49
2023/02/15 02:29:43;;;;;;;4.25;0.60;;;;;;;0.32;66.13;99865.75;5107900;27;20062;-49
2023/02/15 02:32:13;;;;;;;4.68;0.73;;;;;;;0.29;66.13;99869.16;5106450;28;20040;-49
2023/02/15 02:34:50;;;;;;;3.77;0.97;;;;;;;0.30;65.92;99875.97;5109298;28;20055;-48
2023/02/15 02:37:45;;;;;;;4.22;0.80;;;;;;;0.30;65.88;99877.69;5090178;28;20039;-46
2023/02/15 02:40:20;;;;;;;4.43;1.13;;;;;;;0.26;65.53;99874.22;5109617;28;20074;-48
2023/02/15 02:42:55;;;;;;;3.35;0.80;;;;;;;0.24;65.73;99880.19;5072417;28;20127;-51
2023/02/15 02:45:40;;;;;;;1.95;1.00;;;;;;;0.22;65.04;99876.72;5088789;28;20040;-52
2023/02/15 02:48:12;;;;;;;4.72;1.00;;;;;;;0.18;65.16;99878.41;5106062;28;20111;-48
2023/02/15 02:50:39;;;;;;;5.95;1.15;;;;;;;0.19;65.01;99877.56;5073732;28;20047;-50
2023/02/15 02:53:05;;;;;;;4.57;1.00;;;;;;;0.15;65.26;99882.66;5107050;28;20035;-49
2023/02/15 02:55:36;;;;;;;5.93;1.25;;;;;;;0.15;65.02;99883.50;5102047;28;20035;-52
2023/02/15 02:58:29;;;;;;;10.10;1.08;;;;;;;0.15;65.17;99891.16;5105112;28;20047;-47
2023/02/15 03:00:57;;;;;;;3.35;0.95;;;;;;;0.13;65.48;99892.84;5089777;28;20572;-51
2023/02/15 03:03:34;;;;;;;4.05;0.88;;;;;;;0.13;65.23;99882.63;5106366;28;20128;-50
2023/02/15 03:06:05;;;;;;;6.32;1.33;;;;;;;0.14;65.43;99888.59;5083232;28;20043;-48
2023/02/15 03:08:37;;;;;;;2.25;1.08;;;;;;;0.12;65.27;99892.81;5088104;28;20035;-48
2023/02/15 03:11:04;;;;;;;2.90;1.00;;;;;;;0.11;64.94;99893.66;5106394;28;20180;-48
2023/02/15 03:13:30;;;;;;;3.80;0.90;;;;;;;0.09;64.81;99898.78;5089738;28;20046;-48
2023/02/15 03:18:52;;;;;;;1.80;0.77;;;;;;;0.07;64.83;99895.31;5081949;28;20028;-47
2023/02/15 03:21:57;;;;;;;3.88;1.05;;;;;;;0.09;64.71;99897.91;5108380;28;20044;-50
2023/02/15 03:24:40;;;;;;;4.22;1.27;;;;;;;-0.06;65.02;99879.03;5094533;28;20060;-50
2023/02/15 03:27:11;;;;;;;6.15;0.95;;;;;;;0.07;65.06;99908.09;5088396;28;20044;-49
2023/02/15 03:29:38;;;;;;;8.45;1.35;;;;;;;0.05;64.96;99916.63;5090525;28;20533;-49
2023/02/15 03:32:07;;;;;;;7.18;1.00;;;;;;;0.03;65.22;99900.38;5109031;28;20499;-49
2023/02/15 03:34:33;;;;;;;5.10;0.85;;;;;;;0.01;65.31;99908.03;5100836;28;20124;-49
2023/02/15 03:37:24;;;;;;;2.38;1.10;;;;;;;-0.03;65.20;99911.41;5089247;28;20055;-49
2023/02/15 03:41:08;;;;;;;2.60;0.98;;;;;;;-0.04;65.51;99899.47;5086059;28;20051;-50
2023/02/15 03:42:44;;;;;;;2.08;0.88;;;;;;;-0.42;65.36;99846.22;5106235;28;20397;-48
2023/02/15 03:45:14;;;;;;;4.43;1.05;;;;;;;-0.12;65.88;99906.19;5090547;28;20071;-47
2023/02/15 03:47:44;;;;;;;3.78;0.95;;;;;;;-0.13;65.52;99912.13;5105824;28;20168;-51
2023/02/15 03:53:02;;;;;;;1.42;0.63;;;;;;;-0.16;65.48;99907.81;5107667;28;20047;-50
2023/02/15 03:55:29;;;;;;;2.08;0.70;;;;;;;-0.17;65.13;99911.25;5088672;28;20036;-50
2023/02/15 04:03:39;;;;;;;3.55;0.85;;;;;;;-0.18;65.29;99917.19;5103658;28;20067;-50
2023/02/15 04:06:05;;;;;;;2.40;0.88;;;;;;;-0.18;64.99;99917.19;5106580;28;20042;-54
2023/02/15 04:11:15;;;;;;;3.90;1.05;;;;;;;-0.18;64.59;99914.63;5106097;28;20047;-48
2023/02/15 04:13:41;;;;;;;5.32;1.02;;;;;;;-0.18;64.46;99911.22;5105694;28;20043;-53
2023/02/15 04:16:07;;;;;;;4.13;1.00;;;;;;;-0.20;64.55;99913.75;5082069;28;20220;-49
2023/02/15 04:26:55;;;;;;;5.80;1.45;;;;;;;-0.25;63.69;99914.53;5104625;28;20138;-51
2023/02/15 04:29:22;;;;;;;5.22;1.45;;;;;;;-0.25;63.78;99929.84;5106451;28;20043;-51
2023/02/15 04:31:49;;;;;;;2.30;1.70;;;;;;;-0.46;63.47;99887.88;5107412;28;20039;-47
2023/02/15 04:34:15;;;;;;;3.03;1.20;;;;;;;-0.29;63.88;99928.09;5081555;28;20536;-51
2023/02/15 04:36:42;;;;;;;5.82;1.88;;;;;;;-0.31;63.46;99924.66;5087562;28;20482;-48
2023/02/15 04:39:08;;;;;;;2.67;1.40;;;;;;;-0.29;63.29;99925.56;5103022;28;20074;-53
2023/02/15 04:41:34;;;;;;;5.68;1.83;;;;;;;-0.50;63.52;99892.94;5107417;28;20141;-51
2023/02/15 04:44:00;;;;;;;3.75;1.70;;;;;;;-0.29;63.08;99934.06;5101108;28;20142;-48
2023/02/15 04:46:27;;;;;;;3.75;1.83;;;;;;;-0.28;63.29;99934.94;5082147;28;20085;-46
2023/02/15 04:48:53;;;;;;;4.78;1.55;;;;;;;-0.26;63.24;99929.00;5106058;28;20043;-52
2023/02/15 04:51:19;;;;;;;2.13;0.77;;;;;;;-0.25;63.28;99914.53;5099140;28;20058;-49
2023/02/15 04:53:45;;;;;;;4.80;1.58;;;;;;;-0.29;63.25;99915.34;5084190;28;22028;-48
2023/02/15 04:56:11;;;;;;;2.00;1.10;;;;;;;-0.31;63.33;99914.44;5107699;27;20043;-51
2023/02/15 04:58:40;;;;;;;5.50;1.38;;;;;;;-0.31;63.14;99927.22;5106904;28;20486;-50
2023/02/15 05:01:09;;;;;;;2.00;0.75;;;;;;;-0.36;62.99;99918.63;5102959;28;20503;-51
2023/02/15 05:03:36;;;;;;;2.97;1.10;;;;;;;-0.36;63.13;99931.41;5097005;28;20058;-51
2023/02/15 05:06:02;;;;;;;6.07;1.23;;;;;;;-0.40;63.21;99930.53;5101284;28;20035;-46
2023/02/15 05:08:28;;;;;;;4.70;1.10;;;;;;;-0.49;63.21;99923.59;5100547;28;20046;-51
2023/02/15 05:10:54;;;;;;;4.25;1.15;;;;;;;-0.44;63.28;99933.88;5100580;28;20103;-55
2023/02/15 05:13:20;;;;;;;3.42;1.30;;;;;;;-0.48;63.46;99938.09;5105802;28;20174;-49
2023/02/15 05:15:48;;;;;;;3.70;1.00;;;;;;;-0.50;63.05;99934.66;5104644;28;20063;-51
2023/02/15 05:18:15;;;;;;;6.00;1.17;;;;;;;-0.52;62.89;99938.84;5105707;28;20097;-53
2023/02/15 05:20:40;;;;;;;3.92;1.33;;;;;;;-0.53;62.66;99941.41;5103869;28;20460;-52
2023/02/15 05:23:06;;;;;;;7.13;1.15;;;;;;;-0.53;62.88;99938.88;5102193;28;20032;-52
2023/02/15 05:28:19;;;;;;;3.90;1.05;;;;;;;-0.54;63.00;99948.22;5100220;28;20036;-51
2023/02/15 05:30:46;;;;;;;3.88;0.93;;;;;;;-0.54;62.71;99952.47;5099294;28;20047;-52
2023/02/15 05:33:12;;;;;;;10.65;1.17;;;;;;;-0.52;62.48;99950.78;5104138;28;20126;-51
2023/02/15 05:35:38;;;;;;;4.43;1.33;;;;;;;-0.52;62.55;99951.63;5104735;28;20142;-49
2023/02/15 05:38:04;;;;;;;7.38;1.45;;;;;;;-0.52;62.51;99959.28;5102118;28;20065;-52
2023/02/15 05:40:30;;;;;;;5.82;1.30;;;;;;;-0.48;62.20;99958.53;5104834;28;20497;-49
2023/02/15 05:42:56;;;;;;;4.30;1.63;;;;;;;-0.61;62.16;99925.97;5105347;28;20051;-53
2023/02/15 05:45:23;;;;;;;3.63;1.38;;;;;;;-0.46;62.06;99959.38;5086319;28;20136;-51
2023/02/15 05:47:48;;;;;;;2.97;1.17;;;;;;;-0.41;62.16;99954.34;5105783;28;20089;-51
2023/02/15 05:50:14;;;;;;;4.70;1.40;;;;;;;-0.35;62.39;99956.13;5103146;28;20047;-54
2023/02/15 05:52:41;;;;;;;4.25;1.42;;;;;;;-0.42;61.87;99950.91;5105087;28;20043;-49
2023/02/15 05:55:08;;;;;;;4.35;1.80;;;;;;;-0.37;61.96;99962.91;5102847;28;20641;-50
2023/02/15 05:57:35;;;;;;;3.40;1.65;;;;;;;-0.53;61.75;99928.66;5106962;28;20047;-54
2023/02/15 06:00:04;;;;;;;4.13;1.48;;;;;;;-0.36;61.50;99962.91;5100335;28;20036;-56
2023/02/15 06:02:38;;;;;;;5.88;2.45;;;;;;;-0.37;61.76;99960.38;5104437;28;20047;-55
2023/02/15 06:05:05;;;;;;;3.92;1.70;;;;;;;-0.37;61.67;99955.25;5103215;28;20599;-55
2023/02/15 06:07:31;;;;;;;3.90;1.45;;;;;;;-0.40;61.76;99956.06;5120627;28;20151;-55
2023/02/15 06:09:57;;;;;;;3.90;1.67;;;;;;;-0.45;61.76;99963.66;5085333;28;20123;-54
2023/02/15 06:12:24;;;;;;;5.30;2.08;;;;;;;-0.47;61.28;99970.44;5102829;28;20605;-53
2023/02/15 06:14:50;;;;;;;7.18;1.70;;;;;;;-0.81;61.61;99913.75;5052530;28;20126;-57
2023/02/15 06:17:17;;;;;;;6.57;2.58;;;;;;;-0.40;61.56;99978.19;5052733;28;20136;-52
2023/02/15 06:19:43;;;;;;;4.05;1.90;;;;;;;-0.39;61.18;99965.44;5103682;28;20494;-55
2023/02/15 06:22:09;;;;;;;4.70;1.80;;;;;;;-0.31;61.31;99985.97;5085489;28;20052;-55
2023/02/15 06:24:35;;;;;;;4.20;1.83;;;;;;;-0.30;61.39;99978.34;5103931;28;20179;-52
2023/02/15 06:27:01;;;;;;;5.78;1.88;;;;;;;-0.30;61.43;99978.34;5101515;28;20027;-53
2023/02/15 06:29:27;;;;;;;6.93;1.95;;;;;;;-0.46;61.26;99951.72;5052086;28;20035;-52
2023/02/15 06:31:53;;;;;;;5.72;1.70;;;;;;;-0.19;61.54;99981.03;5101383;28;20533;-51
2023/02/15 06:34:19;;;;;;;7.63;1.98;;;;;;;-0.15;61.27;99986.19;5100462;28;20066;-49
2023/02/15 06:36:45;;;;;;;4.35;1.75;;;;;;;-0.10;61.21;99994.78;5105407;28;20040;-50
2023/02/15 06:39:11;;;;;;;8.73;2.08;;;;;;;-0.04;60.98;99999.13;5103452;28;20067;-56
2023/02/15 06:41:37;;;;;;;7.53;1.92;;;;;;;-0.12;61.02;99977.72;5104099;28;20052;-55
2023/02/15 06:44:03;;;;;;;6.00;2.40;;;;;;;-0.02;60.88;99987.22;5104828;28;20109;-53
2023/02/15 06:46:29;;;;;;;4.63;1.67;;;;;;;0.09;60.83;99998.47;5103753;28;20042;-51
2023/02/15 06:48:55;;;;;;;4.30;1.60;;;;;;;0.13;60.50;99996.78;5103252;28;20036;-54
2023/02/15 06:51:21;;;;;;;5.07;1.90;;;;;;;0.14;60.40;99996.81;5105224;28;20127;-53
2023/02/15 06:53:47;;;;;;;4.05;1.50;;;;;;;0.17;60.21;99991.72;5110007;28;20130;-49
2023/02/15 06:56:13;;;;;;;6.47;2.08;;;;;;;-0.02;60.35;99954.88;5109554;28;20066;-49
2023/02/15 06:58:40;;;;;;;4.13;1.60;;;;;;;-0.01;60.43;99960.84;5109394;28;20043;-51
2023/02/15 07:01:06;;;;;;;6.45;2.17;;;;;;;0.24;60.11;99985.00;5090891;28;20056;-50
2023/02/15 07:03:33;;;;;;;3.88;2.00;;;;;;;0.34;59.69;99994.50;5105017;28;20035;-51
2023/02/15 07:06:00;;;;;;;4.38;1.73;;;;;;;0.36;59.88;99995.38;5092293;28;20134;-52
2023/02/15 07:08:27;;;;;;;5.85;1.70;;;;;;;0.47;60.06;99995.50;5090394;28;20040;-52
2023/02/15 07:10:55;;;;;;;4.68;1.85;;;;;;;0.50;59.61;99995.53;5109802;28;20039;-49
2023/02/15 07:13:21;;;;;;;8.25;1.65;;;;;;;0.52;59.44;99988.72;5102481;28;20093;-52
2023/02/15 07:15:48;;;;;;;4.72;1.90;;;;;;;0.62;59.42;99999.09;5098884;28;20126;-55
2023/02/15 07:18:14;;;;;;;4.95;2.38;;;;;;;0.73;59.34;100001.75;5107716;28;20076;-52
2023/02/15 07:20:41;;;;;;;7.53;2.00;;;;;;;0.59;59.28;99975.16;5103961;28;20051;-53
2023/02/15 07:23:07;;;;;;;7.97;2.10;;;;;;;0.83;59.38;99994.19;5091566;28;20066;-55
2023/02/15 07:25:34;;;;;;;4.43;1.80;;;;;;;0.90;59.07;100002.75;5072091;28;20119;-52
2023/02/15 07:28:02;;;;;;;7.20;2.60;;;;;;;0.98;59.45;100015.63;5106364;28;20052;-56
2023/02/15 07:30:28;;;;;;;6.45;2.00;;;;;;;1.03;58.93;100003.72;5081230;28;20048;-56
2023/02/15 07:35:47;;;;;;;6.57;2.25;;;;;;;0.83;59.34;99983.94;5102751;28;20150;-52
2023/02/15 07:38:13;;;;;;;3.60;1.73;;;;;;;1.05;58.70;100000.31;5108304;28;20525;-54
2023/02/15 07:40:39;;;;;;;6.45;2.28;;;;;;;1.07;58.49;100006.34;5105011;27;20067;-48
2023/02/15 07:43:05;;;;;;;3.35;1.80;;;;;;;1.06;58.42;100008.88;5099994;28;20079;-52
2023/02/15 07:45:31;;;;;;;10.93;2.17;;;;;;;1.04;58.56;100013.13;5103892;28;20062;-52
2023/02/15 07:47:57;;;;;;;5.70;2.38;;;;;;;0.79;58.34;99966.81;5106038;28;20035;-53
2023/02/15 07:50:23;;;;;;;5.88;2.35;;;;;;;0.74;58.63;99963.38;5106001;28;20047;-49
2023/02/15 07:52:48;;;;;;;6.75;2.17;;;;;;;1.05;57.76;100007.16;5108565;28;20426;-50
2023/02/15 07:55:14;;;;;;;4.70;1.85;;;;;;;1.03;57.80;100003.72;5073588;28;20086;-54
2023/02/15 07:57:44;;;;;;;4.18;1.98;;;;;;;1.06;57.98;100014.84;5108331;28;20024;-54
2023/02/15 08:00:13;;;;;;;5.80;1.70;;;;;;;1.15;57.93;100022.59;5108089;28;20047;-54
2023/02/15 08:02:39;;;;;;;6.40;1.80;;;;;;;0.99;57.53;99987.50;5108939;28;20038;-53
2023/02/15 08:05:05;;;;;;;3.88;1.80;;;;;;;1.29;57.35;100015.06;5107301;28;20048;-53
2023/02/15 08:07:31;;;;;;;7.85;2.55;;;;;;;1.37;57.36;100023.66;5108703;28;20048;-51
2023/02/15 08:09:59;;;;;;;7.90;1.98;;;;;;;1.43;57.28;100027.97;5107091;28;20535;-51
2023/02/15 08:12:27;;;;;;;4.60;1.50;;;;;;;1.45;57.30;100031.41;5108758;28;20031;-52
2023/02/15 08:14:53;;;;;;;5.35;1.50;;;;;;;1.37;56.72;99997.19;5102978;28;20074;-55
2023/02/15 08:17:19;;;;;;;4.65;1.35;;;;;;;1.47;57.01;100025.44;5107796;28;20491;-56
2023/02/15 08:19:46;;;;;;;4.18;1.63;;;;;;;1.28;56.78;99997.97;5108602;28;20167;-54
2023/02/15 08:22:13;;;;;;;4.45;1.45;;;;;;;1.45;56.44;100028.84;5106401;28;20077;-54
2023/02/15 08:24:41;;;;;;;5.88;2.08;;;;;;;1.41;56.24;100038.22;5089738;28;20149;-53
2023/02/15 08:27:08;;;;;;;6.00;2.00;;;;;;;1.42;56.47;100037.34;5089343;28;20039;-53
2023/02/15 08:29:35;;;;;;;4.20;2.03;;;;;;;1.47;56.41;100047.63;5065611;28;20104;-54
2023/02/15 08:32:04;;;;;;;6.65;1.98;;;;;;;1.42;56.74;100045.03;5105152;28;20367;-48
2023/02/15 08:34:33;;;;;;;3.72;1.48;;;;;;;1.38;56.95;100045.88;5105357;28;20069;-51
2023/02/15 08:37:00;;;;;;;6.28;1.75;;;;;;;1.34;56.85;100044.13;5104678;28;20035;-49
2023/02/15 08:39:26;;;;;;;5.25;2.22;;;;;;;1.28;57.03;100057.75;5107019;28;20061;-52
2023/02/15 08:41:52;;;;;;;4.75;2.22;;;;;;;1.25;56.95;100050.03;5107672;28;20122;-52
2023/02/15 08:44:19;;;;;;;10.05;2.00;;;;;;;1.25;56.94;100050.03;5105889;28;20051;-53
2023/02/15 08:46:47;;;;;;;3.75;1.48;;;;;;;1.25;56.70;100052.59;5107393;28;20075;-52
2023/02/15 08:49:17;;;;;;;7.03;1.67;;;;;;;1.25;56.73;100055.16;5089824;28;20054;-49
2023/02/15 08:51:43;;;;;;;5.70;2.13;;;;;;;1.20;56.88;100049.09;5101915;28;20074;-49
2023/02/15 08:54:13;;;;;;;4.93;2.30;;;;;;;1.25;56.73;100056.88;5103776;28;20071;-50
2023/02/15 08:56:40;;;;;;;6.78;2.60;;;;;;;1.13;56.85;100029.44;5107559;28;20071;-54
2023/02/15 08:59:10;;;;;;;6.25;1.92;;;;;;;1.32;56.64;100050.06;5106813;28;20058;-51
2023/02/15 09:01:36;;;;;;;4.82;1.90;;;;;;;1.45;56.57;100052.75;5106645;28;20419;-53
2023/02/15 09:04:05;;;;;;;6.63;2.20;;;;;;;1.57;56.41;100052.84;5107769;28;20105;-53
2023/02/15 09:06:31;;;;;;;5.13;1.80;;;;;;;1.66;56.18;100054.63;5106195;28;20808;-53
2023/02/15 09:08:57;;;;;;;4.88;1.88;;;;;;;1.76;56.12;100040.16;5106717;28;20051;-49
2023/02/15 09:11:27;;;;;;;5.35;1.60;;;;;;;2.07;55.57;100052.34;5106509;28;20122;-53
2023/02/15 09:13:57;;;;;;;5.43;1.65;;;;;;;2.27;55.36;100050.72;5122376;27;20058;-50
2023/02/15 09:16:23;;;;;;;;;;;;;;;2.40;54.86;100051.66;5089408;28;20036;-48
2023/02/15 09:18:50;;;;;;;10.00;2.13;;;;;;;2.21;54.70;100022.47;5104990;28;20374;-48
2023/02/15 09:21:18;;;;;;;7.20;2.42;;;;;;;2.37;54.90;100051.63;5105769;28;20051;-51
2023/02/15 09:23:46;;;;;;;4.88;1.38;;;;;;;2.31;54.95;100054.16;5105721;28;20050;-52
2023/02/15 09:26:18;;;;;;;4.50;1.58;;;;;;;2.02;55.11;100024.09;5082027;28;20071;-53
2023/02/15 09:28:44;;;;;;;3.53;1.70;;;;;;;2.18;54.87;100054.97;5104371;28;20054;-49
2023/02/15 09:31:15;;;;;;;6.15;2.20;;;;;;;2.18;55.04;100052.38;5072443;28;20051;-51
2023/02/15 09:33:43;;;;;;;5.30;2.25;;;;;;;2.01;54.95;100050.59;5107208;28;20040;-54
2023/02/15 09:36:24;;;;;;;3.45;1.55;;;;;;;1.93;55.25;100057.38;5105575;28;20109;-54
2023/02/15 09:39:14;;;;;;;4.95;1.85;;;;;;;1.70;55.11;100044.41;5106215;28;20123;-54
2023/02/15 09:41:52;;;;;;;7.38;1.60;;;;;;;1.79;54.89;100056.41;5105482;28;20047;-49
2023/02/15 09:44:24;;;;;;;5.45;1.85;;;;;;;1.72;54.85;100070.06;5104976;28;20051;-51
2023/02/15 09:47:14;;;;;;;3.95;1.80;;;;;;;1.78;54.86;100079.50;5106763;28;20145;-54
2023/02/15 09:50:02;;;;;;;3.53;1.27;;;;;;;1.79;54.99;100076.06;5077217;28;20040;-52
2023/02/15 09:52:48;;;;;;;4.10;1.30;;;;;;;1.85;55.01;100076.13;5104154;28;20039;-53
2023/02/15 09:56:08;;;;;;;3.70;1.45;;;;;;;1.75;55.17;100080.31;5105159;28;20792;-50
2023/02/15 09:59:01;;;;;;;4.25;1.63;;;;;;;1.69;55.75;100087.97;5022459;28;20306;-49
2023/02/15 10:01:36;;;;;;;4.75;1.50;;;;;;;1.69;55.65;100082.84;5106242;28;20043;-52
2023/02/15 10:04:30;;;;;;;4.65;1.52;;;;;;;1.41;55.84;100045.91;5105614;28;20138;-55
2023/02/15 10:07:34;;;;;;;5.25;1.70;;;;;;;1.61;56.30;100085.34;5104725;28;20043;-52
2023/02/15 10:10:30;;;;;;;3.83;1.45;;;;;;;1.62;55.78;100084.47;5105574;28;20105;-51
2023/02/15 10:13:28;;;;;;;2.75;1.50;;;;;;;1.59;56.10;100092.16;5104537;28;20044;-50
2023/02/15 10:16:10;;;;;;;4.70;1.52;;;;;;;1.58;56.25;100094.69;5103597;28;20045;-53
2023/02/15 10:18:53;;;;;;;2.90;1.23;;;;;;;1.52;56.34;100097.19;5105578;28;20067;-51
2023/02/15 10:21:47;;;;;;;5.55;1.60;;;;;;;1.51;56.06;100088.69;5076928;28;20420;-50
2023/02/15 10:24:37;;;;;;;5.97;1.95;;;;;;;1.55;56.26;100095.53;5105818;28;20084;-50
2023/02/15 10:27:18;;;;;;;4.72;1.55;;;;;;;1.55;55.95;100098.09;5109271;28;20040;-51
2023/02/15 10:30:13;;;;;;;2.40;1.50;;;;;;;1.56;55.99;100098.97;5108231;28;20118;-54
2023/02/15 10:33:03;;;;;;;2.47;1.02;;;;;;;1.50;55.69;100101.47;5092904;28;20564;-52
2023/02/15 10:36:01;;;;;;;3.50;1.50;;;;;;;1.43;55.57;100100.56;5109030;28;20047;-52
2023/02/15 10:38:41;;;;;;;2.78;1.10;;;;;;;1.29;55.81;100086.78;5069273;27;20096;-51
2023/02/15 10:41:25;;;;;;;2.22;1.08;;;;;;;1.42;55.84;100108.22;5106969;28;20047;-52
2023/02/15 10:44:00;;;;;;;5.22;1.60;;;;;;;1.46;55.88;100110.84;5108263;28;20059;-51
2023/02/15 10:46:52;;;;;;;4.75;1.73;;;;;;;1.39;56.44;100121.00;5109780;28;20050;-54
2023/02/15 10:49:36;;;;;;;2.25;1.17;;;;;;;1.26;56.75;100135.38;5107319;28;20051;-50
2023/02/15 10:52:30;;;;;;;6.75;1.45;;;;;;;1.10;57.18;100107.94;5109338;28;20054;-55
2023/02/15 10:55:31;;;;;;;2.63;1.48;;;;;;;1.25;57.75;100141.38;5106533;28;20482;-52
2023/02/15 10:57:59;;;;;;;4.00;1.25;;;;;;;1.32;57.49;100142.28;5096209;28;20267;-49
2023/02/15 11:00:41;;;;;;;3.05;1.63;;;;;;;1.37;57.59;100146.59;5109477;28;20040;-51
2023/02/15 11:03:20;;;;;;;2.60;1.48;;;;;;;1.41;57.70;100144.94;5086276;28;20740;-51
2023/02/15 11:05:59;;;;;;;6.18;1.58;;;;;;;1.07;57.75;100092.53;5109462;28;20050;-55
2023/02/15 11:08:26;;;;;;;2.03;1.33;;;;;;;1.11;58.22;100115.59;5090809;28;20423;-54
2023/02/15 11:10:57;;;;;;;4.40;1.55;;;;;;;1.24;58.33;100150.75;5110028;28;20043;-51
2023/02/15 11:13:27;;;;;;;6.82;1.40;;;;;;;1.20;58.52;100150.72;5098384;28;20511;-51
2023/02/15 11:16:05;;;;;;;3.08;1.42;;;;;;;1.18;58.61;100160.06;5092075;28;20080;-53
2023/02/15 11:18:41;;;;;;;2.95;1.17;;;;;;;1.16;58.53;100157.47;5108802;28;20031;-50
2023/02/15 11:21:17;;;;;;;3.95;1.60;;;;;;;1.13;59.17;100161.72;5091404;28;20067;-54
2023/02/15 11:23:44;;;;;;;1.80;1.00;;;;;;;0.90;58.95;100133.28;5107169;28;20170;-54
2023/02/15 11:26:28;;;;;;;4.30;1.30;;;;;;;1.02;59.25;100160.72;5108208;28;20108;-54
2023/02/15 11:29:06;;;;;;;4.72;1.40;;;;;;;0.99;59.63;100156.44;5107864;28;20067;-53
2023/02/15 11:31:55;;;;;;;11.85;3.55;;;;;;;0.93;60.02;100164.06;5087604;28;20044;-52
2023/02/15 11:34:53;;;;;;;5.73;1.53;;;;;;;0.52;60.27;100097.03;5107266;28;20122;-50
2023/02/15 11:37:24;;;;;;;4.43;1.10;;;;;;;0.91;60.26;100169.97;5088280;28;20476;-49
2023/02/15 11:39:54;;;;;;;4.63;1.80;;;;;;;0.89;60.71;100185.31;5090827;28;20124;-53
2023/02/15 11:42:23;;;;;;;4.53;1.70;;;;;;;0.89;61.16;100181.91;5108523;28;20134;-54
2023/02/15 11:45:27;;;;;;;5.55;2.00;;;;;;;0.87;61.29;100186.16;5100080;28;20051;-52
2023/02/15 11:47:54;;;;;;;3.42;1.30;;;;;;;0.79;61.55;100188.59;5106210;28;20035;-54
2023/02/15 11:50:23;;;;;;;4.95;1.30;;;;;;;0.57;61.03;100150.81;5108062;27;20403;-51
2023/02/15 11:52:51;;;;;;;2.75;1.33;;;;;;;0.78;61.23;100182.66;5108888;28;20059;-52
2023/02/15 11:55:20;;;;;;;2.85;0.93;;;;;;;0.61;61.25;100155.13;5109150;28;20036;-53
2023/02/15 11:57:55;;;;;;;2.53;0.80;;;;;;;0.81;60.68;100184.38;5109484;28;20115;-51
2023/02/15 12:00:35;;;;;;;3.20;1.13;;;;;;;0.84;60.60;100194.63;5104780;28;20047;-51
2023/02/15 12:03:13;;;;;;;4.10;1.60;;;;;;;0.88;60.47;100200.69;5081140;28;20070;-49
2023/02/15 12:05:42;;;;;;;7.35;1.90;;;;;;;0.87;60.06;100193.81;5102558;28;20088;-52
2023/02/15 12:08:21;;;;;;;2.13;0.98;;;;;;;0.84;60.04;100198.06;5107449;28;20066;-49
2023/02/15 12:10:58;;;;;;;3.60;0.93;;;;;;;0.80;59.93;100193.75;5065336;28;20044;-53
2023/02/15 12:13:24;;;;;;;3.35;1.00;;;;;;;0.74;59.67;100185.97;5108027;28;20515;-50
2023/02/15 12:15:53;;;;;;;2.67;0.70;;;;;;;0.72;59.34;100194.50;5107306;28;20594;-50
2023/02/15 12:18:40;;;;;;;0.70;0.45;;;;;;;0.74;59.32;100203.91;5107480;28;20038;-50
2023/02/15 12:21:24;;;;;;;2.72;0.93;;;;;;;0.72;59.14;100197.91;5106996;28;20487;-53
2023/02/15 12:23:56;;;;;;;2.90;1.00;;;;;;;0.71;58.69;100195.31;5107999;28;20114;-52